Las Palomas, New Mexico
Current Conditions -  °F | °C
As of 4:53 PM on Wednesday 26 Nov 2014 (Local Time) from KTCS Reporting Station
Clear Clear  
Wind Chill: 59°   Ceiling: Unl
Heat Index: 59°   Visibility: 10mi
Dew Point: 22°   Wind: 5mph
Humidity: 24%   Direction: 100°E
Pressure: 30.29"   Gusts: NA
Location:  33.1162°N, 107.291°W
Report Text: KTCS 262353Z AUTO 10004KT 10SM CLR 15/M06 A3029 RMK AO2 SLP230 T01501056 10183 20111 53001 TSNO
Loading
Personal Weather Stations






























Interactive Weather Map New forecast layout! Learn more

10-Day Weather Forecast

Advertisements
Track Severe Weather on mobile